Terminal Aerodrome Forecast
Issued by NWS Albuquerque, NM

Home | Current Version | Previous Version | Text Only | Print | Product List | Glossary On
Versions: 1 2 3 4 5 6 7 8 9 10 11 12
055
FTUS45 KABQ 170540
TAFABQ
TAF
KABQ 170540Z 1706/1806 13006KT P6SM BKN200
     FM171200 VRB04KT P6SM SCT110 BKN150
     FM172100 20006KT P6SM SCT080 BKN150
     FM180200 13005KT P6SM BKN060=

USA.gov is the U.S. government's official web portal to all federal, state and local government web resources and services.